Time;durP1;ratioP1;P1;durP2;ratioP2;P2;SDS_P1;SDS_P2;PMS_P1;PMS_P2;Temp;Humidity;BMP_temperature;BMP_pressure;BME280_temperature;BME280_humidity;BME280_pressure;Samples;Min_cycle;Max_cycle;Signal;HPM_P1;HPM_P2
2022/01/22 00:53:04;;;;;;;11.23;6.85;;;5.00;99.90;;;;;;1096263;26;20487;-87
2022/01/22 01:07:43;;;;;;;9.05;5.35;;;5.10;99.90;;;;;;5017988;28;20269;-87
2022/01/22 01:13:14;;;;;;;10.10;6.25;;;5.00;99.90;;;;;;4958364;26;20218;-88
2022/01/22 01:45:37;;;;;;;9.93;5.47;;;5.10;99.90;;;;;;5685903;23;20241;-84
2022/01/22 02:10:41;;;;;;;8.90;5.70;;;5.20;99.90;;;;;;4937007;29;20338;-83
2022/01/22 02:47:22;;;;;;;9.23;6.57;;;5.30;99.90;;;;;;4887158;29;20878;-83
2022/01/22 03:07:49;;;;;;;12.27;6.63;;;5.60;99.90;;;;;;4925860;29;20236;-83
2022/01/22 03:18:01;;;;;;;11.55;7.07;;;5.60;99.90;;;;;;4865070;29;20203;-83
2022/01/22 03:33:43;;;;;;;13.13;7.85;;;5.30;99.90;;;;;;4911975;28;20210;-83
2022/01/22 03:36:13;;;;;;;11.13;6.32;;;5.30;99.90;;;;;;4981845;28;20234;-82
2022/01/22 03:39:26;;;;;;;;;;;;;;;;;;;;;
2022/01/22 03:44:56;;;;;;;11.90;7.97;;;5.20;99.90;;;;;;4999069;28;20247;-83
2022/01/22 03:50:46;;;;;;;12.07;7.68;;;5.50;99.90;;;;;;4981340;28;20251;-83
2022/01/22 03:53:40;;;;;;;12.80;7.55;;;5.20;99.90;;;;;;4965313;28;20262;-83
2022/01/22 03:56:53;;;;;;;10.38;6.82;;;5.40;99.90;;;;;;5000778;28;20236;-82
2022/01/22 04:03:26;;;;;;;10.40;7.32;;;5.10;99.90;;;;;;4998843;28;20271;-83
2022/01/22 04:28:49;;;;;;;12.80;8.02;;;5.50;99.90;;;;;;4920973;29;20289;-82
2022/01/22 04:31:59;;;;;;;15.55;8.13;;;5.50;99.90;;;;;;4919219;28;20223;-82
2022/01/22 04:35:04;;;;;;;12.63;7.45;;;5.60;99.90;;;;;;4984650;28;20249;-82
2022/01/22 04:38:18;;;;;;;9.95;7.32;;;5.60;99.90;;;;;;4933564;28;20233;-82
2022/01/22 04:41:09;;;;;;;15.48;8.68;;;5.60;99.90;;;;;;4996663;28;20217;-82
2022/01/22 04:43:57;;;;;;;11.40;7.32;;;5.50;99.90;;;;;;4997870;28;20213;-82
2022/01/22 04:46:55;;;;;;;11.70;7.53;;;5.10;99.90;;;;;;4998388;28;20268;-82
2022/01/22 04:58:44;;;;;;;11.35;7.53;;;5.70;99.90;;;;;;5008039;28;20287;-81
2022/01/22 05:01:48;;;;;;;14.18;8.25;;;5.50;99.90;;;;;;4999299;28;20618;-82
2022/01/22 05:10:56;;;;;;;12.32;8.02;;;5.10;99.90;;;;;;4996336;28;20213;-82
2022/01/22 05:13:35;;;;;;;14.95;7.40;;;5.70;99.90;;;;;;4989461;28;20213;-82
2022/01/22 05:16:17;;;;;;;11.95;7.47;;;5.40;99.90;;;;;;4998107;28;20264;-82
2022/01/22 05:19:32;;;;;;;11.05;7.20;;;5.60;99.90;;;;;;4999807;28;20233;-83
2022/01/22 05:38:24;;;;;;;12.68;6.75;;;5.70;99.90;;;;;;5002140;28;20223;-81
2022/01/22 05:41:43;;;;;;;12.68;7.90;;;5.70;99.90;;;;;;4998335;28;20210;-82
2022/01/22 05:48:47;;;;;;;15.77;8.95;;;5.20;99.90;;;;;;4853875;29;20327;-81
2022/01/22 06:10:55;;;;;;;16.33;7.70;;;5.60;99.90;;;;;;4913828;29;20277;-82
2022/01/22 06:14:04;;;;;;;12.77;7.68;;;5.60;99.90;;;;;;4980218;28;20239;-82
2022/01/22 06:47:54;;;;;;;12.30;7.55;;;5.80;99.90;;;;;;4922849;29;20208;-82
2022/01/22 07:07:52;;;;;;;9.25;6.78;;;5.80;99.90;;;;;;4882491;29;20209;-83
2022/01/22 07:10:48;;;;;;;15.27;7.75;;;5.80;99.90;;;;;;4902577;29;20213;-83
2022/01/22 07:17:46;;;;;;;11.40;6.97;;;5.70;99.90;;;;;;4973204;28;20206;-83
2022/01/22 07:21:12;;;;;;;;;;;;;;;;;;;;;
2022/01/22 07:27:52;;;;;;;12.95;8.68;;;5.50;99.90;;;;;;4889073;29;20239;-83
2022/01/22 07:38:00;;;;;;;16.60;8.95;;;5.50;99.90;;;;;;4910273;29;20197;-84
2022/01/22 07:41:12;;;;;;;11.75;7.07;;;5.50;99.90;;;;;;4895882;29;20712;-83
2022/01/22 07:53:44;;;;;;;13.63;8.35;;;5.60;99.90;;;;;;4946528;28;20200;-83
2022/01/22 08:07:02;;;;;;;11.23;7.03;;;5.50;99.90;;;;;;5028544;23;20613;-88
2022/01/22 08:09:30;;;;;;;12.32;8.00;;;5.50;99.90;;;;;;5024491;28;20305;-88
2022/01/22 08:11:57;;;;;;;12.70;8.20;;;5.70;99.90;;;;;;5025644;28;20282;-87
2022/01/22 08:14:24;;;;;;;15.85;8.65;;;5.50;99.90;;;;;;5029499;28;20203;-89
2022/01/22 08:16:51;;;;;;;14.55;9.23;;;5.10;99.90;;;;;;5053125;28;20289;-86
2022/01/22 08:19:19;;;;;;;13.85;9.02;;;5.50;99.90;;;;;;5045416;28;20243;-87
2022/01/22 08:21:47;;;;;;;14.75;8.50;;;5.20;99.90;;;;;;5041785;28;20292;-88
2022/01/22 08:24:16;;;;;;;15.32;9.55;;;5.40;99.90;;;;;;5042270;28;20687;-88
2022/01/22 08:26:47;;;;;;;16.88;8.32;;;5.50;99.90;;;;;;5044316;28;20248;-88
2022/01/22 08:29:14;;;;;;;14.98;8.55;;;5.40;99.90;;;;;;5042964;28;20369;-88
2022/01/22 08:31:52;;;;;;;16.67;9.80;;;5.50;99.90;;;;;;5043862;28;20205;-88
2022/01/22 08:37:04;;;;;;;15.98;9.80;;;5.20;99.90;;;;;;5052885;28;20236;-89
2022/01/22 08:39:31;;;;;;;17.15;9.18;;;5.40;99.90;;;;;;5051186;28;20212;-85
2022/01/22 08:41:58;;;;;;;22.08;12.55;;;5.50;99.90;;;;;;5058877;28;20207;-86
2022/01/22 08:44:25;;;;;;;17.02;10.45;;;5.00;99.90;;;;;;5048070;28;20296;-87
2022/01/22 08:46:52;;;;;;;18.85;10.48;;;5.40;99.90;;;;;;5045897;28;20233;-89
2022/01/22 08:49:21;;;;;;;18.33;9.40;;;5.60;99.90;;;;;;5053313;28;20276;-86
2022/01/22 08:51:48;;;;;;;20.90;10.95;;;5.50;99.90;;;;;;5053271;28;20205;-89
2022/01/22 08:54:15;;;;;;;15.93;11.25;;;5.40;99.90;;;;;;5046400;28;20220;-88
2022/01/22 08:56:42;;;;;;;17.70;10.95;;;5.50;99.90;;;;;;5045913;28;20253;-87
2022/01/22 08:59:10;;;;;;;16.38;10.23;;;5.50;99.90;;;;;;5052789;28;20206;-88
2022/01/22 09:01:39;;;;;;;19.00;10.68;;;4.90;99.90;;;;;;5043817;28;20213;-88
2022/01/22 09:04:06;;;;;;;19.27;11.45;;;5.50;99.90;;;;;;5042933;28;20330;-86
2022/01/22 09:06:34;;;;;;;18.52;9.80;;;5.50;99.90;;;;;;5042723;28;20340;-86
2022/01/22 09:09:09;;;;;;;20.40;10.60;;;5.10;99.90;;;;;;5044420;28;20233;-89
2022/01/22 09:11:36;;;;;;;15.98;10.10;;;5.20;99.90;;;;;;5045111;28;20188;-88
2022/01/22 09:14:07;;;;;;;18.70;10.98;;;5.50;99.90;;;;;;5042054;28;20641;-87
2022/01/22 09:16:35;;;;;;;17.35;11.02;;;5.50;99.90;;;;;;5045263;28;20274;-89
2022/01/22 09:19:06;;;;;;;16.15;10.68;;;5.50;99.90;;;;;;5046860;28;20241;-88
2022/01/22 09:21:35;;;;;;;16.65;9.80;;;5.20;99.90;;;;;;5043395;28;20200;-89
2022/01/22 09:24:02;;;;;;;18.98;10.15;;;5.50;99.90;;;;;;5043478;28;20235;-88
2022/01/22 09:26:30;;;;;;;19.15;10.80;;;5.50;99.90;;;;;;5043505;28;20364;-89
2022/01/22 09:28:59;;;;;;;19.30;9.85;;;5.40;99.90;;;;;;5049980;28;20228;-89
2022/01/22 09:31:27;;;;;;;15.38;10.25;;;5.50;99.90;;;;;;5054293;28;20689;-89
2022/01/22 09:33:57;;;;;;;17.42;10.55;;;5.60;99.90;;;;;;5048984;28;20213;-88
2022/01/22 09:36:24;;;;;;;17.80;10.32;;;5.50;99.90;;;;;;5044168;28;20223;-89
2022/01/22 09:38:53;;;;;;;17.25;9.70;;;5.10;99.90;;;;;;5046468;28;20267;-87
2022/01/22 09:41:21;;;;;;;16.63;9.25;;;5.70;99.90;;;;;;5053147;28;20265;-86
2022/01/22 09:43:49;;;;;;;16.17;10.32;;;5.70;99.90;;;;;;5045356;28;20208;-89
2022/01/22 09:46:16;;;;;;;14.10;9.63;;;5.70;99.90;;;;;;5042595;28;20229;-89
2022/01/22 09:48:44;;;;;;;18.92;10.30;;;5.80;99.90;;;;;;5042674;28;20232;-89
2022/01/22 09:51:12;;;;;;;20.02;10.43;;;5.60;99.90;;;;;;5042120;28;20300;-89
2022/01/22 09:53:40;;;;;;;15.43;10.77;;;5.90;99.90;;;;;;5042995;28;20277;-89
2022/01/22 09:56:08;;;;;;;19.83;11.43;;;5.80;99.90;;;;;;5043764;28;20585;-89
2022/01/22 09:58:35;;;;;;;17.95;10.85;;;5.60;99.90;;;;;;5043561;28;20236;-89
2022/01/22 10:01:23;;;;;;;17.30;10.35;;;6.00;99.90;;;;;;5042523;28;20209;-89
2022/01/22 10:03:50;;;;;;;17.77;9.95;;;5.80;99.90;;;;;;5042796;28;20293;-88
2022/01/22 10:06:19;;;;;;;13.30;9.32;;;5.40;99.90;;;;;;5042553;28;20244;-87
2022/01/22 10:08:46;;;;;;;13.93;9.10;;;5.90;99.90;;;;;;5049204;28;20259;-87
2022/01/22 10:11:19;;;;;;;14.65;9.82;;;5.70;99.90;;;;;;5053049;28;20194;-87
2022/01/22 10:13:48;;;;;;;18.95;10.77;;;6.00;99.90;;;;;;5049057;28;20205;-89
2022/01/22 10:16:19;;;;;;;18.15;10.63;;;5.90;99.90;;;;;;5055137;28;20223;-86
2022/01/22 10:18:46;;;;;;;14.45;9.40;;;6.10;99.90;;;;;;5054211;28;20208;-87
2022/01/22 10:21:16;;;;;;;12.25;7.78;;;6.10;99.90;;;;;;5056300;28;20184;-87
2022/01/22 10:23:43;;;;;;;19.15;8.73;;;6.30;99.90;;;;;;5055667;28;20277;-88
2022/01/22 10:26:14;;;;;;;13.55;9.40;;;6.60;99.90;;;;;;5054009;28;20225;-88
2022/01/22 10:28:50;;;;;;;15.20;9.60;;;6.30;99.90;;;;;;5045974;28;20214;-88
2022/01/22 10:31:23;;;;;;;19.63;8.55;;;6.30;99.90;;;;;;5052688;28;20201;-89
2022/01/22 10:34:07;;;;;;;12.63;8.35;;;6.40;99.90;;;;;;5052696;28;20213;-89
2022/01/22 10:36:38;;;;;;;12.45;8.63;;;6.30;99.90;;;;;;5048527;28;20259;-90
2022/01/22 10:39:09;;;;;;;14.25;8.10;;;6.30;99.90;;;;;;5046000;28;20638;-88
2022/01/22 10:41:38;;;;;;;13.38;9.20;;;6.00;99.90;;;;;;5044964;28;20191;-89
2022/01/22 10:44:09;;;;;;;15.90;10.50;;;6.10;99.90;;;;;;5045348;28;20221;-88
2022/01/22 10:46:47;;;;;;;12.23;8.15;;;6.10;99.90;;;;;;5043910;28;20228;-89
2022/01/22 10:49:16;;;;;;;14.85;8.40;;;6.20;99.90;;;;;;5044300;28;20231;-89
2022/01/22 10:51:51;;;;;;;12.32;8.20;;;6.30;99.90;;;;;;5043521;28;20210;-88
2022/01/22 10:54:21;;;;;;;14.05;8.80;;;6.10;99.90;;;;;;5044359;28;20268;-90
2022/01/22 10:56:49;;;;;;;14.18;9.05;;;6.00;99.90;;;;;;5043848;28;20260;-88
2022/01/22 10:59:47;;;;;;;14.13;8.95;;;6.30;99.90;;;;;;5045319;28;20203;-90
2022/01/22 11:02:17;;;;;;;12.30;8.30;;;6.30;99.90;;;;;;5045796;28;20215;-89
2022/01/22 11:04:45;;;;;;;12.80;9.02;;;6.30;99.90;;;;;;5043447;28;20232;-89
2022/01/22 11:07:17;;;;;;;13.52;8.10;;;6.40;99.90;;;;;;5043396;28;20304;-87
2022/01/22 11:09:45;;;;;;;14.98;7.70;;;6.40;99.90;;;;;;5045024;28;20225;-88
2022/01/22 11:12:13;;;;;;;14.75;9.23;;;6.10;99.90;;;;;;5043185;28;20225;-88
2022/01/22 11:14:43;;;;;;;14.95;8.63;;;6.60;99.90;;;;;;5044782;28;20213;-89
2022/01/22 11:17:11;;;;;;;13.30;8.75;;;6.00;99.90;;;;;;5047946;28;20288;-90
2022/01/22 11:19:39;;;;;;;16.00;10.43;;;6.40;99.90;;;;;;5049326;28;20264;-88
2022/01/22 11:22:09;;;;;;;16.58;7.97;;;6.00;99.90;;;;;;5048872;28;20231;-87
2022/01/22 11:24:38;;;;;;;14.27;9.15;;;6.50;99.90;;;;;;5047555;28;20283;-88
2022/01/22 11:27:07;;;;;;;17.92;9.80;;;6.10;99.90;;;;;;5048747;28;20233;-89
2022/01/22 11:29:38;;;;;;;13.07;8.90;;;6.50;99.90;;;;;;5050849;28;20229;-89
2022/01/22 11:32:10;;;;;;;11.30;7.53;;;6.10;99.90;;;;;;5055804;28;20206;-90
2022/01/22 11:34:41;;;;;;;15.50;9.57;;;6.30;99.90;;;;;;5059154;28;20196;-89
2022/01/22 11:37:19;;;;;;;12.80;8.40;;;6.30;99.90;;;;;;5058402;28;20228;-89
2022/01/22 11:39:46;;;;;;;14.15;8.38;;;6.30;99.90;;;;;;5057370;28;20197;-89
2022/01/22 11:42:14;;;;;;;13.90;9.02;;;6.20;99.90;;;;;;5056922;28;20214;-88
2022/01/22 11:44:49;;;;;;;12.73;8.15;;;6.30;99.90;;;;;;5055093;28;20216;-88
2022/01/22 11:47:20;;;;;;;12.68;8.73;;;6.30;99.90;;;;;;5052862;28;20235;-89
2022/01/22 11:50:08;;;;;;;14.35;8.25;;;6.20;99.90;;;;;;5051986;28;20220;-86
2022/01/22 11:52:38;;;;;;;13.77;8.55;;;6.30;99.90;;;;;;5052552;28;20517;-88
2022/01/22 11:55:09;;;;;;;15.15;7.78;;;6.70;99.90;;;;;;5052535;28;20564;-86
2022/01/22 11:57:36;;;;;;;13.52;7.85;;;6.60;99.90;;;;;;5052303;28;20196;-86
2022/01/22 12:00:22;;;;;;;13.48;7.97;;;6.50;99.90;;;;;;5051584;28;20218;-88
2022/01/22 12:03:21;;;;;;;9.73;7.40;;;6.30;99.90;;;;;;5051293;28;20205;-88
2022/01/22 12:06:11;;;;;;;16.00;9.55;;;6.70;99.90;;;;;;5049829;28;20244;-88
2022/01/22 12:09:05;;;;;;;11.15;8.13;;;6.10;99.90;;;;;;5050523;28;20205;-87
2022/01/22 12:14:51;;;;;;;12.38;8.68;;;6.50;99.90;;;;;;5055635;28;20214;-88
2022/01/22 12:17:25;;;;;;;14.48;8.10;;;6.90;99.90;;;;;;5057516;28;20237;-89
2022/01/22 12:20:06;;;;;;;14.32;7.70;;;6.40;99.90;;;;;;5048990;28;20208;-89
2022/01/22 12:22:48;;;;;;;11.95;7.68;;;6.80;99.90;;;;;;5050973;28;20197;-88
2022/01/22 12:25:48;;;;;;;10.98;8.00;;;6.40;99.90;;;;;;5048733;28;20209;-88
2022/01/22 12:28:34;;;;;;;8.98;5.85;;;6.70;99.90;;;;;;5047921;28;20635;-89
2022/01/22 12:31:03;;;;;;;8.10;5.43;;;6.70;99.90;;;;;;5050336;28;20261;-88
2022/01/22 12:33:49;;;;;;;9.10;5.80;;;6.70;99.90;;;;;;5049530;28;20274;-88
2022/01/22 12:36:23;;;;;;;8.10;5.15;;;6.70;99.90;;;;;;5049957;28;20233;-89
2022/01/22 12:39:04;;;;;;;10.68;5.15;;;7.30;99.90;;;;;;5052062;28;20197;-88
2022/01/22 12:41:31;;;;;;;9.50;4.97;;;7.20;99.90;;;;;;5049372;28;20216;-89
2022/01/22 12:44:12;;;;;;;7.20;5.03;;;7.40;99.90;;;;;;5048525;28;20216;-89
2022/01/22 12:46:39;;;;;;;7.32;4.35;;;7.10;99.90;;;;;;5054007;28;20239;-89
2022/01/22 12:49:08;;;;;;;7.65;5.07;;;7.20;99.90;;;;;;5053960;28;20205;-89
2022/01/22 12:51:37;;;;;;;9.00;5.20;;;6.90;99.90;;;;;;5048179;28;20239;-90
2022/01/22 12:54:04;;;;;;;7.72;5.40;;;7.10;99.90;;;;;;5046201;28;20227;-90
2022/01/22 12:56:51;;;;;;;8.07;4.82;;;7.30;99.90;;;;;;5048382;28;20288;-89
2022/01/22 12:59:19;;;;;;;7.03;4.32;;;6.90;99.90;;;;;;5045756;28;20218;-88
2022/01/22 13:01:51;;;;;;;7.47;4.75;;;7.00;99.90;;;;;;5047524;28;20290;-87
2022/01/22 13:04:21;;;;;;;7.65;4.57;;;6.90;99.90;;;;;;5052428;28;20234;-89
2022/01/22 13:06:52;;;;;;;10.00;4.82;;;7.00;99.90;;;;;;5045230;28;20277;-89
2022/01/22 13:09:22;;;;;;;8.95;4.63;;;7.00;99.90;;;;;;5045343;28;20276;-90
2022/01/22 13:11:52;;;;;;;6.43;4.07;;;7.00;99.90;;;;;;5045496;28;20190;-89
2022/01/22 13:14:27;;;;;;;14.25;5.80;;;6.70;99.90;;;;;;5045793;28;20218;-89
2022/01/22 13:16:56;;;;;;;8.70;5.53;;;6.90;99.90;;;;;;5045004;28;20793;-88
2022/01/22 13:19:24;;;;;;;7.97;4.43;;;6.90;99.90;;;;;;5046615;28;20214;-88
2022/01/22 13:21:54;;;;;;;7.50;5.25;;;6.50;99.90;;;;;;5045116;28;20218;-90
2022/01/22 13:24:25;;;;;;;7.05;4.90;;;6.50;99.90;;;;;;5048496;28;20197;-88
2022/01/22 13:26:57;;;;;;;9.65;5.47;;;7.00;99.90;;;;;;5047068;28;20589;-88
2022/01/22 13:29:28;;;;;;;7.22;4.85;;;7.00;99.90;;;;;;5046694;28;20210;-89
2022/01/22 13:32:04;;;;;;;8.45;5.38;;;6.70;99.90;;;;;;5046380;28;20273;-88
2022/01/22 13:34:42;;;;;;;7.40;5.47;;;7.00;99.90;;;;;;5045831;28;20188;-90
2022/01/22 13:40:13;;;;;;;10.68;7.38;;;6.90;99.90;;;;;;5014626;28;20221;-89
2022/01/22 13:47:40;;;;;;;12.00;6.40;;;7.00;99.90;;;;;;5049677;28;20234;-89
2022/01/22 13:48:24;;;;;;;11.30;5.40;;;7.00;99.90;;;;;;5046242;28;20210;-88
2022/01/22 13:50:51;;;;;;;8.68;5.43;;;6.80;99.90;;;;;;5045767;28;20296;-88
2022/01/22 13:53:20;;;;;;;9.70;6.10;;;7.00;99.90;;;;;;5045206;28;20225;-89
2022/01/22 13:55:57;;;;;;;10.10;6.00;;;7.10;99.90;;;;;;5046641;28;20291;-89
2022/01/22 13:58:24;;;;;;;8.07;6.05;;;6.60;99.90;;;;;;5045874;28;20220;-89
2022/01/22 14:00:51;;;;;;;10.40;6.15;;;7.00;99.90;;;;;;5046364;28;20292;-89
2022/01/22 14:03:30;;;;;;;9.98;6.70;;;7.00;99.90;;;;;;5045865;28;20212;-89
2022/01/22 14:17:27;;;;;;;;;;;;;;;;;;;;;
2022/01/22 14:20:14;;;;;;;12.82;7.38;;;7.00;99.90;;;;;;4902267;29;20220;-82
2022/01/22 14:27:14;;;;;;;;;;;;;;;;;;;;;
2022/01/22 15:45:38;;;;;;;;;;;;;;;;;;;;;
2022/01/22 17:59:54;;;;;;;25.38;15.20;;;6.40;99.90;;;;;;4790108;29;20372;-81
2022/01/22 18:52:54;;;;;;;20.90;12.50;;;6.20;99.90;;;;;;4872127;29;20333;-82
2022/01/22 20:02:35;;;;;;;21.17;12.65;;;5.80;99.90;;;;;;4863410;29;20270;-84
2022/01/22 20:11:34;;;;;;;22.95;15.23;;;5.90;99.90;;;;;;4984021;28;20297;-88
2022/01/22 20:14:02;;;;;;;21.45;13.18;;;5.90;99.90;;;;;;5019076;28;20194;-88
2022/01/22 20:16:30;;;;;;;19.05;14.05;;;5.50;99.90;;;;;;5013006;28;20221;-87
2022/01/22 20:18:57;;;;;;;19.88;13.70;;;6.00;99.90;;;;;;5023899;28;20224;-88
2022/01/22 20:21:24;;;;;;;18.60;13.60;;;5.90;99.90;;;;;;5027847;28;20217;-88
2022/01/22 20:23:53;;;;;;;22.02;13.25;;;5.60;99.90;;;;;;5026414;28;20206;-86
2022/01/22 20:26:20;;;;;;;22.33;14.10;;;5.60;99.90;;;;;;5032984;28;20264;-87
2022/01/22 20:28:47;;;;;;;20.95;13.15;;;5.90;99.90;;;;;;5024948;28;20253;-88
2022/01/22 20:31:16;;;;;;;21.83;14.30;;;5.80;99.90;;;;;;5025161;28;20225;-88
2022/01/22 20:33:46;;;;;;;16.48;11.23;;;5.90;99.90;;;;;;5029696;28;20224;-88
2022/01/22 20:36:13;;;;;;;19.73;13.38;;;5.50;99.90;;;;;;5029280;28;20205;-89
2022/01/22 20:38:44;;;;;;;27.52;15.43;;;5.90;99.90;;;;;;5027474;28;20226;-88
2022/01/22 20:41:13;;;;;;;32.53;16.75;;;5.80;99.90;;;;;;5026349;28;20197;-88
2022/01/22 20:43:42;;;;;;;16.08;10.48;;;5.50;99.90;;;;;;5025381;28;20658;-89
2022/01/22 20:46:10;;;;;;;17.17;11.18;;;5.90;99.90;;;;;;5025842;28;20217;-87
2022/01/22 20:48:38;;;;;;;15.48;9.90;;;5.70;99.90;;;;;;5026803;28;20225;-89
2022/01/22 20:51:05;;;;;;;17.40;11.52;;;5.50;99.90;;;;;;5032636;28;20229;-88
2022/01/22 20:53:33;;;;;;;14.10;9.27;;;6.00;99.90;;;;;;5038494;28;20210;-88
2022/01/22 20:56:00;;;;;;;16.25;10.52;;;6.10;99.90;;;;;;5028643;28;20218;-89
2022/01/22 20:58:35;;;;;;;17.08;10.50;;;5.90;99.90;;;;;;5034027;28;20604;-88
2022/01/22 21:01:04;;;;;;;17.80;10.55;;;5.50;99.90;;;;;;5032513;28;20201;-89
2022/01/22 21:03:32;;;;;;;18.45;11.75;;;5.80;99.90;;;;;;5031401;28;20303;-89
2022/01/22 21:05:59;;;;;;;15.02;10.52;;;5.90;99.90;;;;;;5029721;28;20244;-87
2022/01/22 21:08:31;;;;;;;20.83;11.13;;;6.00;99.90;;;;;;5028624;28;20295;-88
2022/01/22 21:11:00;;;;;;;17.30;10.70;;;5.50;99.90;;;;;;5028771;28;20208;-89
2022/01/22 21:13:30;;;;;;;15.77;10.25;;;5.90;99.90;;;;;;5031822;28;20279;-87
2022/01/22 21:15:57;;;;;;;17.75;11.10;;;6.00;99.90;;;;;;5028560;28;20230;-86
2022/01/22 21:18:25;;;;;;;18.50;12.35;;;6.10;99.90;;;;;;5033636;28;20236;-88
2022/01/22 21:20:52;;;;;;;15.55;10.32;;;6.00;99.90;;;;;;5037581;28;20258;-87
2022/01/22 21:23:19;;;;;;;15.30;10.60;;;6.00;99.90;;;;;;5027505;28;20213;-87
2022/01/22 21:25:47;;;;;;;16.02;11.55;;;6.10;99.90;;;;;;5027687;28;20245;-87
2022/01/22 21:28:15;;;;;;;14.85;10.02;;;5.80;99.90;;;;;;5034437;28;20690;-88
2022/01/22 21:30:45;;;;;;;16.73;10.70;;;5.80;99.90;;;;;;5032914;28;20226;-90
2022/01/22 21:33:19;;;;;;;16.83;10.20;;;5.50;99.90;;;;;;5029249;28;20229;-88
2022/01/22 21:35:50;;;;;;;15.15;10.35;;;5.70;99.90;;;;;;5028855;28;20248;-87
2022/01/22 21:38:29;;;;;;;16.27;10.32;;;6.00;99.90;;;;;;5031209;28;20308;-88
2022/01/22 21:40:58;;;;;;;15.30;9.75;;;5.90;99.90;;;;;;5036033;28;20193;-89
2022/01/22 21:43:27;;;;;;;19.75;13.40;;;6.10;99.90;;;;;;5029668;28;20214;-87
2022/01/22 21:45:56;;;;;;;17.80;10.65;;;5.90;99.90;;;;;;5026017;28;20288;-88
2022/01/22 21:48:23;;;;;;;19.05;10.95;;;5.90;99.90;;;;;;5024935;28;20232;-89
2022/01/22 21:50:51;;;;;;;15.77;10.73;;;5.80;99.90;;;;;;5026674;28;20217;-86
2022/01/22 21:53:22;;;;;;;18.67;10.88;;;5.90;99.90;;;;;;5027411;28;20226;-89
2022/01/22 21:55:49;;;;;;;15.02;9.52;;;5.90;99.90;;;;;;5032268;28;20226;-88
2022/01/22 21:58:16;;;;;;;18.63;11.18;;;5.90;99.90;;;;;;5035341;28;20234;-88
2022/01/22 22:00:43;;;;;;;15.93;10.38;;;5.90;99.90;;;;;;5035550;28;20256;-88
2022/01/22 22:03:12;;;;;;;14.35;9.65;;;5.80;99.90;;;;;;5034811;28;20240;-89
2022/01/22 22:05:40;;;;;;;14.57;9.18;;;5.60;99.90;;;;;;5026190;28;20218;-89
2022/01/22 22:08:07;;;;;;;15.48;10.38;;;5.50;99.90;;;;;;5027856;28;20252;-89
2022/01/22 22:10:35;;;;;;;18.80;11.30;;;5.80;99.90;;;;;;5026841;28;20204;-88
2022/01/22 22:13:02;;;;;;;17.98;10.25;;;5.90;99.90;;;;;;5025556;28;20268;-87
2022/01/22 22:15:36;;;;;;;14.88;8.68;;;5.80;99.90;;;;;;5029247;28;20213;-87
2022/01/22 22:18:04;;;;;;;17.85;10.25;;;5.40;99.90;;;;;;5025700;28;20231;-87
2022/01/22 22:20:35;;;;;;;14.30;9.13;;;5.80;99.90;;;;;;5025236;28;20244;-89
2022/01/22 22:23:02;;;;;;;15.02;9.32;;;5.90;99.90;;;;;;5025265;28;20235;-88
2022/01/22 22:25:30;;;;;;;14.98;9.88;;;5.60;99.90;;;;;;5025629;28;20217;-88
2022/01/22 22:27:57;;;;;;;14.80;9.77;;;5.60;99.90;;;;;;5023978;28;20317;-89
2022/01/22 22:30:24;;;;;;;13.27;8.30;;;5.50;99.90;;;;;;5024195;28;20259;-87
2022/01/22 22:32:51;;;;;;;12.82;8.75;;;5.80;99.90;;;;;;5023568;28;20261;-89
2022/01/22 22:35:20;;;;;;;12.65;8.40;;;5.80;99.90;;;;;;5024012;28;20213;-88
2022/01/22 22:37:49;;;;;;;15.35;8.85;;;5.60;99.90;;;;;;5029617;28;20230;-87
2022/01/22 22:40:19;;;;;;;14.70;9.30;;;5.90;99.90;;;;;;5027252;28;20563;-87
2022/01/22 22:42:51;;;;;;;13.90;8.57;;;5.80;99.90;;;;;;5021768;28;20251;-88
2022/01/22 22:45:20;;;;;;;14.77;9.27;;;5.70;99.90;;;;;;5026326;28;20245;-87
2022/01/22 22:47:46;;;;;;;12.52;8.32;;;6.00;99.90;;;;;;5033420;28;20233;-89
2022/01/22 22:50:14;;;;;;;18.13;9.32;;;5.70;99.90;;;;;;5028729;28;20301;-89
2022/01/22 22:52:41;;;;;;;14.55;9.82;;;5.80;99.90;;;;;;5027296;28;20259;-88
2022/01/22 22:55:10;;;;;;;14.32;9.45;;;5.40;99.90;;;;;;5023896;28;20329;-89
2022/01/22 22:57:38;;;;;;;16.33;10.27;;;5.70;99.90;;;;;;5035087;28;20205;-89
2022/01/22 23:00:16;;;;;;;15.65;9.57;;;5.60;99.90;;;;;;5023338;28;20222;-89
2022/01/22 23:02:46;;;;;;;15.88;10.10;;;5.80;99.90;;;;;;5025992;28;20208;-89
2022/01/22 23:05:13;;;;;;;16.70;10.40;;;5.70;99.90;;;;;;5035481;28;20199;-89
2022/01/22 23:07:40;;;;;;;14.40;9.02;;;5.70;99.90;;;;;;5036423;28;20233;-86
2022/01/22 23:10:09;;;;;;;12.73;8.70;;;5.70;99.90;;;;;;5030391;28;20194;-88
2022/01/22 23:12:40;;;;;;;18.00;9.02;;;5.70;99.90;;;;;;5030045;28;20234;-88
2022/01/22 23:15:08;;;;;;;17.35;8.95;;;5.70;99.90;;;;;;5029764;28;20233;-88
2022/01/22 23:17:50;;;;;;;13.02;8.05;;;5.70;99.90;;;;;;5029334;28;20217;-89
2022/01/22 23:25:50;;;;;;;15.90;7.78;;;5.40;99.90;;;;;;5000665;28;20203;-88
2022/01/22 23:28:21;;;;;;;16.60;10.02;;;5.90;99.90;;;;;;5034065;28;20218;-90
2022/01/22 23:30:50;;;;;;;13.93;9.32;;;5.90;99.90;;;;;;5040418;28;20241;-87
2022/01/22 23:33:21;;;;;;;18.17;9.35;;;5.80;99.90;;;;;;5030529;28;20657;-87
2022/01/22 23:36:03;;;;;;;13.00;9.02;;;5.80;99.90;;;;;;5026690;28;20274;-87
2022/01/22 23:55:43;;;;;;;10.98;7.18;;;5.20;99.90;;;;;;5001734;28;20248;-90
2022/01/22 23:58:15;;;;;;;14.25;7.70;;;5.60;99.90;;;;;;5027864;28;20230;-88
